Annabella, Utah
Current Conditions -  °F | °C
As of 11:55 AM on Monday 20 Oct 2014 (Local Time) from KDTA Reporting Station
Clear Clear  
Wind Chill: 66°   Ceiling: Unl
Heat Index: 66°   Visibility: 10mi
Dew Point: 35°   Wind: 0mph
Humidity: 31%   Direction: NA
Pressure: 30.09"   Gusts: NA
Location:  38.71°N, 112.06°W
Report Text: KDTA 201755Z AUTO 00000KT 10SM CLR 19/02 A3009 RMK AO1 T01900016 10351 20000
Loading
Personal Weather Stations






























Interactive Weather Map New forecast layout! Learn more

10-Day Weather Forecast

Advertisements
Track Severe Weather on mobile